Huvudsida
METAR-TAF:

METAR-TAF

Flygplatser :

Hongkongs internationella flygplats

Hongkong, Kina

latitud: 22-19N, longitud: 113-55E, höjd: 9 m

Aktuellt väderrapport

Denna rapport gjordes för 19 minuter sedan, klockan 08:30 UTC
Vind 9 kt varierande vindriktning
Temperatur 28°C
Fuktighet 62%
Tryck 1015 hPa
Sikt 10 km eller mer
Få moln på en höjd av 3200 ft

METAR: VHHH 210830Z VRB09KT 9999 FEW032 28/20 Q1015 NOSIG

Tid: 16:49 (08:49 UTC)

Väderprognos

Denna rapport gjordes för 1 timme och 42 minuter sedan, klockan 07:07 UTC
Prognos gäller från 21 kl. 07 UTC till 22 kl. 12 UTC
Vind 10 kt från ost
Sikt 10 km eller mer
Få moln på en höjd av 3000 ft
Temporärt
från 21 kl. 07 UTC till 21 kl. 10 UTC
Vind 10 kt från väst
Temporärt
från 22 kl. 03 UTC till 22 kl. 09 UTC
Vind 10 kt från väst/nordväst

TAF: VHHH 210707Z 2107/2212 09010KT 9999 FEW030 TX29/2206Z TN24/2122Z TEMPO 2107/2110 26010KT TEMPO 2203/2209 29010KT

Aktuella väderrapporter och prognoser från 4000 flygplatser (METAR- och TAF-rapporter).

De tillgängliga stationerna syns som gula och röda prickar på kartan.

För musen över prickarna för att se namnen på stationerna.

Klicka sedan för att få väderrapporter och prognoser.

För att ändra kartan: Klicka på de gröna knapparna med ett svart kors på för att zooma in; den gröna knappen med ett streck på för att zooma ut; eller på de gröna pilarna för angränsande kartor.


METAR-TAF: